createdAt,value
2019-01-19T00:00:39.205Z,97759.72
2019-01-19T00:03:27.351Z,97760.27
2019-01-19T00:06:18.708Z,97755.83
2019-01-19T00:08:54.875Z,97758.77
2019-01-19T00:11:48.027Z,97759.86
2019-01-19T00:14:25.411Z,97751.62
2019-01-19T00:17:28.374Z,97749.75
2019-01-19T00:20:28.042Z,97746.50
2019-01-19T00:23:21.711Z,97746.50
2019-01-19T00:26:20.941Z,97749.03
2019-01-19T00:28:56.871Z,97745.77
2019-01-19T00:31:41.628Z,97741.74
2019-01-19T00:34:37.141Z,97745.59
2019-01-19T00:37:16.389Z,97744.23
2019-01-19T00:40:14.930Z,97741.56
2019-01-19T00:42:58.048Z,97741.66
2019-01-19T00:46:03.602Z,97740.89
2019-01-19T00:48:43.849Z,97735.50
2019-01-19T00:51:40.450Z,97738.79
2019-01-19T00:54:16.219Z,97738.79
2019-01-19T00:56:56.977Z,97735.04
2019-01-19T00:59:31.547Z,97734.51
2019-01-19T01:02:24.056Z,97734.51
2019-01-19T01:05:02.627Z,97732.51
2019-01-19T01:07:59.689Z,97727.17
2019-01-19T01:10:38.783Z,97730.37
2019-01-19T01:13:23.301Z,97725.67
2019-01-19T01:16:09.144Z,97727.94
2019-01-19T01:18:49.870Z,97727.98
2019-01-19T01:21:49.749Z,97727.02
2019-01-19T01:24:35.879Z,97731.47
2019-01-19T01:27:17.362Z,97728.74
2019-01-19T01:30:23.025Z,97729.97
2019-01-19T01:33:06.749Z,97729.34
2019-01-19T01:36:03.177Z,97734.05
2019-01-19T01:38:48.347Z,97725.67
2019-01-19T01:41:40.188Z,97724.67
2019-01-19T01:44:44.836Z,97726.25
2019-01-19T01:47:45.199Z,97726.25
2019-01-19T01:50:21.093Z,97723.00
2019-01-19T01:53:28.904Z,97719.33
2019-01-19T01:56:01.762Z,97722.23
2019-01-19T01:58:55.798Z,97718.38
2019-01-19T02:01:48.196Z,97718.30
2019-01-19T02:04:55.996Z,97719.33
2019-01-19T02:07:44.133Z,97717.98
2019-01-19T02:10:37.939Z,97714.76
2019-01-19T02:13:25.777Z,97709.38
2019-01-19T02:16:20.719Z,97710.46
2019-01-19T02:19:19.674Z,97707.73
2019-01-19T02:22:14.542Z,97707.73
2019-01-19T02:25:08.740Z,97709.38
2019-01-19T02:27:54.534Z,97705.80
2019-01-19T02:30:34.975Z,97704.26
2019-01-19T02:33:24.099Z,97704.26
2019-01-19T02:36:03.989Z,97697.70
2019-01-19T02:38:54.679Z,97697.70
2019-01-19T02:41:54.115Z,97699.37
2019-01-19T02:44:37.882Z,97688.37
2019-01-19T02:47:29.049Z,97693.66
2019-01-19T02:50:18.567Z,97681.08
2019-01-19T02:53:06.979Z,97683.62
2019-01-19T02:56:03.590Z,97675.11
2019-01-19T02:58:54.117Z,97678.23
2019-01-19T03:01:39.377Z,97678.23
2019-01-19T03:04:38.939Z,97674.70
2019-01-19T03:09:54.197Z,97661.77
2019-01-19T03:12:35.231Z,97664.87
2019-01-19T03:15:22.318Z,97664.87
2019-01-19T03:18:01.374Z,97668.53
2019-01-19T03:20:55.421Z,97667.17
2019-01-19T03:23:50.312Z,97663.07
2019-01-19T03:26:36.037Z,97666.33
2019-01-19T03:29:31.512Z,97666.33
2019-01-19T03:32:19.625Z,97664.30
2019-01-19T03:35:07.173Z,97662.70
2019-01-19T03:37:45.356Z,97662.70
2019-01-19T03:40:40.500Z,97660.27
2019-01-19T03:43:43.145Z,97657.19
2019-01-19T03:46:20.570Z,97657.19
2019-01-19T03:49:05.431Z,97655.28
2019-01-19T03:51:43.738Z,97649.53
2019-01-19T03:54:29.493Z,97647.77
2019-01-19T03:57:14.792Z,97646.78
2019-01-19T03:59:54.305Z,97651.30
2019-01-19T04:02:49.737Z,97640.59
2019-01-19T04:05:29.991Z,97647.01
2019-01-19T04:08:37.816Z,97644.88
2019-01-19T04:11:25.519Z,97643.38
2019-01-19T04:14:04.943Z,97636.88
2019-01-19T04:16:47.168Z,97641.45
2019-01-19T04:19:33.047Z,97633.58
2019-01-19T04:22:18.520Z,97632.13
2019-01-19T04:25:05.243Z,97630.53
2019-01-19T04:27:34.429Z,97627.23
2019-01-19T04:30:03.555Z,97624.16
2019-01-19T04:32:33.044Z,97624.16
2019-01-19T04:35:02.287Z,97618.81
2019-01-19T04:37:31.531Z,97617.73
2019-01-19T04:40:00.715Z,97613.16
2019-01-19T04:42:30.854Z,97612.66
2019-01-19T04:45:00.002Z,97607.06
2019-01-19T04:47:29.162Z,97607.24
2019-01-19T04:49:58.691Z,97613.94
2019-01-19T04:52:27.919Z,97607.87
2019-01-19T04:54:57.034Z,97607.87
2019-01-19T04:57:27.745Z,97604.03
2019-01-19T04:59:56.872Z,97601.45
2019-01-19T05:02:26.036Z,97597.88
2019-01-19T05:04:55.149Z,97597.66
2019-01-19T05:07:24.298Z,97600.31
2019-01-19T05:10:03.233Z,97603.58
2019-01-19T05:12:36.254Z,97586.61
2019-01-19T05:15:07.462Z,97594.13
2019-01-19T05:17:37.095Z,97590.15
2019-01-19T05:20:09.379Z,97590.15
2019-01-19T05:22:38.490Z,97588.97
2019-01-19T05:25:09.107Z,97588.97
2019-01-19T05:27:38.365Z,97589.91
2019-01-19T05:30:11.462Z,97581.14
2019-01-19T05:32:40.970Z,97583.67
2019-01-19T05:35:10.080Z,97581.27
2019-01-19T05:37:39.221Z,97576.80
2019-01-19T05:40:09.858Z,97577.57
2019-01-19T05:45:16.723Z,97576.21
2019-01-19T05:47:45.864Z,97581.02
2019-01-19T05:50:18.755Z,97583.48
2019-01-19T05:52:49.028Z,97583.48
2019-01-19T05:55:19.578Z,97581.96
2019-01-19T05:57:48.738Z,97572.64
2019-01-19T06:00:24.203Z,97572.64
2019-01-19T06:02:53.790Z,97580.11
2019-01-19T06:05:22.913Z,97580.11
2019-01-19T06:07:52.113Z,97576.58
2019-01-19T06:10:21.215Z,97570.66
2019-01-19T06:12:50.788Z,97573.27
2019-01-19T06:15:19.907Z,97576.26
2019-01-19T06:17:49.061Z,97572.19
2019-01-19T06:20:18.360Z,97572.19
2019-01-19T06:22:47.532Z,97575.00
2019-01-19T06:25:16.774Z,97573.23
2019-01-19T06:27:45.952Z,97573.23
2019-01-19T06:30:17.904Z,97577.43
2019-01-19T06:32:47.041Z,97575.67
2019-01-19T06:35:16.255Z,97581.91
2019-01-19T06:37:45.382Z,97582.36
2019-01-19T06:40:14.965Z,97582.36
2019-01-19T06:42:46.623Z,97577.48
2019-01-19T06:45:19.703Z,97577.48
2019-01-19T06:47:49.394Z,97580.15
2019-01-19T06:50:20.587Z,97580.15
2019-01-19T06:52:50.907Z,97578.12
2019-01-19T06:55:26.165Z,97579.92
2019-01-19T06:57:55.332Z,97577.52
2019-01-19T07:00:24.447Z,97577.16
2019-01-19T07:02:53.638Z,97577.16
2019-01-19T07:05:23.246Z,97581.28
2019-01-19T07:07:54.778Z,97581.28
2019-01-19T07:10:25.077Z,97578.80
2019-01-19T07:12:54.204Z,97580.38
2019-01-19T07:15:23.330Z,97584.41
2019-01-19T07:17:52.558Z,97581.50
2019-01-19T07:20:25.055Z,97585.27
2019-01-19T07:22:54.244Z,97582.91
2019-01-19T07:25:23.362Z,97588.30
2019-01-19T07:27:52.499Z,97588.25
2019-01-19T07:30:22.120Z,97590.69
2019-01-19T07:32:51.362Z,97593.04
2019-01-19T07:35:20.499Z,97593.04
2019-01-19T07:37:49.697Z,97589.73
2019-01-19T07:40:19.246Z,97589.73
2019-01-19T07:42:59.815Z,97593.40
2019-01-19T07:45:32.246Z,97596.12
2019-01-19T07:48:04.695Z,97595.07
2019-01-19T07:50:35.776Z,97595.84
2019-01-19T07:53:06.569Z,97596.66
2019-01-19T07:55:36.919Z,97599.59
2019-01-19T07:58:06.158Z,97599.59
2019-01-19T08:00:35.576Z,97604.62
2019-01-19T08:03:04.708Z,97604.62
2019-01-19T08:05:37.078Z,97605.98
2019-01-19T08:08:06.584Z,97605.66
2019-01-19T08:10:35.687Z,97606.24
2019-01-19T08:13:06.014Z,97607.42
2019-01-19T08:15:35.193Z,97612.08
2019-01-19T08:18:04.422Z,97612.08
2019-01-19T08:20:35.090Z,97603.67
2019-01-19T08:23:04.463Z,97596.52
2019-01-19T08:25:35.501Z,97600.22
2019-01-19T08:28:05.162Z,97600.22
2019-01-19T08:30:34.391Z,97609.63
2019-01-19T08:33:05.516Z,97604.56
2019-01-19T08:35:34.932Z,97600.85
2019-01-19T08:38:04.049Z,97603.88
2019-01-19T08:40:36.091Z,97603.73
2019-01-19T08:43:24.647Z,97599.39
2019-01-19T08:45:53.767Z,97600.47
2019-01-19T08:48:23.446Z,97600.47
2019-01-19T08:50:54.964Z,97598.17
2019-01-19T08:53:24.104Z,97590.91
2019-01-19T08:55:53.210Z,97598.70
2019-01-19T08:58:22.466Z,97598.70
2019-01-19T09:00:51.595Z,97600.58
2019-01-19T09:03:20.701Z,97600.58
2019-01-19T09:05:51.318Z,97596.27
2019-01-19T09:08:55.817Z,97589.88
2019-01-19T09:11:27.114Z,97594.84
2019-01-19T09:13:56.255Z,97592.19
2019-01-19T09:16:25.446Z,97581.72
2019-01-19T09:18:54.548Z,97582.78
2019-01-19T09:21:26.509Z,97580.09
2019-01-19T09:24:01.881Z,97578.08
2019-01-19T09:26:31.026Z,97578.08
2019-01-19T09:29:01.171Z,97586.31
2019-01-19T09:31:30.464Z,97584.89
2019-01-19T09:33:59.674Z,97588.28
2019-01-19T09:36:46.247Z,97586.86
2019-01-19T09:39:17.235Z,97596.27
2019-01-19T09:41:46.332Z,97596.27
2019-01-19T09:44:15.454Z,97595.36
2019-01-19T09:46:47.228Z,97589.62
2019-01-19T09:49:16.351Z,97591.06
2019-01-19T09:51:45.476Z,97591.06
2019-01-19T09:54:14.594Z,97590.15
2019-01-19T09:56:44.181Z,97578.28
2019-01-19T09:59:13.376Z,97572.06
2019-01-19T10:04:30.280Z,97574.19
2019-01-19T10:07:00.542Z,97569.41
2019-01-19T10:09:29.688Z,97568.61
2019-01-19T10:11:58.798Z,97568.61
2019-01-19T10:14:29.902Z,97571.38
2019-01-19T10:16:59.281Z,97569.16
2019-01-19T10:19:28.487Z,97567.25
2019-01-19T10:21:57.610Z,97567.25
2019-01-19T10:24:26.770Z,97565.34
2019-01-19T10:26:56.297Z,97565.59
2019-01-19T10:29:25.908Z,97555.30
2019-01-19T10:31:55.004Z,97555.24
2019-01-19T10:34:24.117Z,97566.14
2019-01-19T10:36:53.603Z,97564.50
2019-01-19T10:39:22.739Z,97563.60
2019-01-19T10:41:51.855Z,97557.79
2019-01-19T10:44:20.984Z,97556.80
2019-01-19T10:46:50.089Z,97552.91
2019-01-19T10:49:19.255Z,97544.26
2019-01-19T10:51:48.375Z,97545.09
2019-01-19T10:54:17.572Z,97542.33
2019-01-19T10:56:46.711Z,97540.63
2019-01-19T10:59:33.647Z,97534.72
2019-01-19T11:02:04.096Z,97535.82
2019-01-19T11:04:33.243Z,97535.82
2019-01-19T11:07:02.392Z,97529.37
2019-01-19T11:09:36.742Z,97522.27
2019-01-19T11:12:05.982Z,97522.08
2019-01-19T11:14:35.356Z,97519.41
2019-01-19T11:17:04.505Z,97517.91
2019-01-19T11:19:37.268Z,97513.48
2019-01-19T11:22:06.395Z,97510.25
2019-01-19T11:24:35.520Z,97503.33
2019-01-19T11:27:04.642Z,97504.95
2019-01-19T11:29:37.774Z,97500.13
2019-01-19T11:32:06.876Z,97500.13
2019-01-19T11:34:35.987Z,97502.63
2019-01-19T11:37:05.233Z,97491.91
2019-01-19T11:39:34.678Z,97488.52
2019-01-19T11:42:21.350Z,97485.45
2019-01-19T11:44:51.327Z,97484.58
2019-01-19T11:47:20.563Z,97482.41
2019-01-19T11:49:49.717Z,97473.15
2019-01-19T11:52:22.163Z,97475.51
2019-01-19T11:54:51.435Z,97469.69
2019-01-19T11:57:20.545Z,97468.92
2019-01-19T11:59:49.693Z,97463.32
2019-01-19T12:05:07.991Z,97456.22
2019-01-19T12:07:37.092Z,97457.95
2019-01-19T12:10:08.442Z,97449.13
2019-01-19T12:12:38.003Z,97449.13
2019-01-19T12:15:09.217Z,97447.28
2019-01-19T12:17:38.482Z,97447.28
2019-01-19T12:20:12.250Z,97441.70
2019-01-19T12:22:41.372Z,97438.42
2019-01-19T12:25:12.308Z,97433.00
2019-01-19T12:27:41.721Z,97433.38
2019-01-19T12:30:14.327Z,97431.83
2019-01-19T12:32:43.539Z,97431.52
2019-01-19T12:35:13.059Z,97428.28
2019-01-19T12:37:42.694Z,97427.07
2019-01-19T12:40:13.255Z,97410.80
2019-01-19T12:42:44.136Z,97409.91
2019-01-19T12:45:20.108Z,97403.94
2019-01-19T12:47:49.298Z,97400.30
2019-01-19T12:50:20.753Z,97405.81
2019-01-19T12:52:50.317Z,97402.70
2019-01-19T12:55:19.585Z,97391.28
2019-01-19T12:57:48.704Z,97385.75
2019-01-19T13:00:20.412Z,97389.80
2019-01-19T13:02:53.110Z,97377.52
2019-01-19T13:05:25.869Z,97374.92
2019-01-19T13:07:55.056Z,97374.27
2019-01-19T13:10:31.537Z,97372.39
2019-01-19T13:13:13.401Z,97365.63
2019-01-19T13:16:10.243Z,97360.69
2019-01-19T13:18:54.357Z,97360.69
2019-01-19T13:21:51.002Z,97359.69
2019-01-19T13:27:17.990Z,97352.42
2019-01-19T13:30:05.236Z,97348.63
2019-01-19T13:32:43.949Z,97345.88
2019-01-19T13:35:41.037Z,97347.41
2019-01-19T13:38:48.570Z,97332.77
2019-01-19T13:41:55.975Z,97332.77
2019-01-19T13:45:04.083Z,97338.56
2019-01-19T13:47:55.302Z,97340.58
2019-01-19T13:50:39.208Z,97340.58
2019-01-19T13:53:46.627Z,97338.08
2019-01-19T13:56:26.992Z,97338.08
2019-01-19T13:59:27.244Z,97333.16
2019-01-19T14:02:26.730Z,97331.20
2019-01-19T14:05:18.154Z,97326.13
2019-01-19T14:08:09.941Z,97330.89
2019-01-19T14:11:06.282Z,97332.22
2019-01-19T14:14:06.274Z,97332.22
2019-01-19T14:20:04.912Z,97328.27
2019-01-19T14:23:02.078Z,97328.66
2019-01-19T14:26:03.885Z,97330.66
2019-01-19T14:29:04.382Z,97330.66
2019-01-19T14:31:51.475Z,97325.09
2019-01-19T14:34:40.579Z,97323.08
2019-01-19T14:37:38.970Z,97323.08
2019-01-19T14:40:23.532Z,97318.52
2019-01-19T14:43:30.096Z,97320.78
2019-01-19T14:46:11.542Z,97310.62
2019-01-19T14:49:08.833Z,97307.60
2019-01-19T14:51:59.037Z,97303.72
2019-01-19T14:54:47.578Z,97296.22
2019-01-19T14:57:27.938Z,97300.03
2019-01-19T15:00:12.963Z,97300.03
2019-01-19T15:02:56.551Z,97306.48
2019-01-19T15:05:34.249Z,97294.89
2019-01-19T15:08:15.839Z,97306.94
2019-01-19T15:10:58.456Z,97298.66
2019-01-19T15:13:44.054Z,97298.66
2019-01-19T15:16:47.653Z,97286.33
2019-01-19T15:19:44.885Z,97286.33
2019-01-19T15:22:32.830Z,97296.88
2019-01-19T15:25:25.389Z,97280.25
2019-01-19T15:28:10.760Z,97280.25
2019-01-19T15:30:59.002Z,97285.95
2019-01-19T15:33:50.066Z,97282.47
2019-01-19T15:36:47.320Z,97290.14
2019-01-19T15:39:30.366Z,97290.14
2019-01-19T15:42:27.910Z,97291.45
2019-01-19T15:45:06.257Z,97286.50
2019-01-19T15:48:00.631Z,97287.19
2019-01-19T15:50:59.432Z,97287.19
2019-01-19T15:53:42.074Z,97287.29
2019-01-19T15:56:37.667Z,97287.29
2019-01-19T15:59:22.402Z,97284.16
2019-01-19T16:02:19.807Z,97279.00
2019-01-19T16:05:28.615Z,97279.00
2019-01-19T16:08:19.612Z,97276.35
2019-01-19T16:11:08.393Z,97276.35
2019-01-19T16:13:49.359Z,97281.77
2019-01-19T16:16:44.423Z,97274.78
2019-01-19T16:19:38.432Z,97269.97
2019-01-19T16:22:31.715Z,97270.67
2019-01-19T16:25:39.350Z,97270.67
2019-01-19T16:28:36.597Z,97276.20
2019-01-19T16:31:20.499Z,97273.57
2019-01-19T16:34:09.624Z,97270.92
2019-01-19T16:36:51.503Z,97271.36
2019-01-19T16:39:44.496Z,97273.69
2019-01-19T16:42:29.321Z,97275.11
2019-01-19T16:45:13.519Z,97276.07
2019-01-19T16:48:04.988Z,97269.56
2019-01-19T16:50:44.832Z,97277.16
2019-01-19T16:53:27.386Z,97269.45
2019-01-19T16:56:09.750Z,97270.11
2019-01-19T16:59:09.983Z,97273.37
2019-01-19T17:02:12.292Z,97267.78
2019-01-19T17:05:04.751Z,97266.53
2019-01-19T17:07:48.772Z,97266.14
2019-01-19T17:10:27.480Z,97264.50
2019-01-19T17:13:13.158Z,97264.17
2019-01-19T17:16:04.156Z,97265.63
2019-01-19T17:19:13.343Z,97266.16
2019-01-19T17:22:02.632Z,97260.50
2019-01-19T17:24:52.048Z,97259.67
2019-01-19T17:27:35.777Z,97256.28
2019-01-19T17:30:29.081Z,97253.59
2019-01-19T17:33:08.784Z,97263.44
2019-01-19T17:35:48.828Z,97255.88
2019-01-19T17:38:53.212Z,97257.77
2019-01-19T17:42:04.855Z,97262.58
2019-01-19T17:45:12.956Z,97266.50
2019-01-19T17:48:11.784Z,97263.50
2019-01-19T17:51:02.632Z,97263.45
2019-01-19T17:54:05.333Z,97270.03
2019-01-19T17:56:45.360Z,97261.30
2019-01-19T17:59:32.606Z,97265.48
2019-01-19T18:02:27.746Z,97262.52
2019-01-19T18:05:13.540Z,97257.99
2019-01-19T18:07:54.951Z,97264.03
2019-01-19T18:10:55.599Z,97256.66
2019-01-19T18:13:36.586Z,97261.14
2019-01-19T18:16:25.231Z,97262.52
2019-01-19T18:19:11.402Z,97250.73
2019-01-19T18:22:04.528Z,97249.33
2019-01-19T18:25:02.363Z,97255.77
2019-01-19T18:27:57.983Z,97251.09
2019-01-19T18:30:52.916Z,97251.09
2019-01-19T18:33:52.570Z,97249.71
2019-01-19T18:36:52.734Z,97249.71
2019-01-19T18:39:37.078Z,97247.36
2019-01-19T18:42:30.133Z,97250.98
2019-01-19T18:45:31.498Z,97250.98
2019-01-19T18:48:18.399Z,97254.22
2019-01-19T18:51:02.606Z,97247.49
2019-01-19T18:53:45.594Z,97244.87
2019-01-19T18:56:40.029Z,97243.09
2019-01-19T18:59:33.223Z,97243.09
2019-01-19T19:02:38.547Z,97243.19
2019-01-19T19:05:19.949Z,97243.19
2019-01-19T19:11:17.688Z,97252.04
2019-01-19T19:14:06.157Z,97252.04
2019-01-19T19:17:05.584Z,97242.52
2019-01-19T19:19:55.607Z,97246.45
2019-01-19T19:22:53.838Z,97249.47
2019-01-19T19:25:39.058Z,97247.06
2019-01-19T19:28:28.144Z,97247.06
2019-01-19T19:31:19.135Z,97251.97
2019-01-19T19:33:59.579Z,97253.16
2019-01-19T19:36:44.657Z,97248.95
2019-01-19T19:39:23.050Z,97247.63
2019-01-19T19:42:18.065Z,97243.51
2019-01-19T19:45:12.702Z,97243.09
2019-01-19T19:48:20.263Z,97243.09
2019-01-19T19:51:15.781Z,97246.05
2019-01-19T19:53:45.004Z,97241.33
2019-01-19T19:56:19.035Z,97246.77
2019-01-19T19:58:48.156Z,97242.90
2019-01-19T20:01:18.538Z,97242.90
2019-01-19T20:03:47.670Z,97246.66
2019-01-19T20:06:17.954Z,97247.45
2019-01-19T20:08:47.445Z,97247.45
2019-01-19T20:11:18.418Z,97246.98
2019-01-19T20:13:47.528Z,97241.73
2019-01-19T20:16:17.982Z,97242.44
2019-01-19T20:18:47.222Z,97250.26
2019-01-19T20:21:16.805Z,97250.26
2019-01-19T20:23:45.913Z,97247.75
2019-01-19T20:26:15.026Z,97248.73
2019-01-19T20:28:44.203Z,97244.48
2019-01-19T20:31:31.323Z,97246.13
2019-01-19T20:34:00.452Z,97246.13
2019-01-19T20:36:29.909Z,97246.27
2019-01-19T20:38:59.039Z,97246.27
2019-01-19T20:41:28.153Z,97245.06
2019-01-19T20:43:57.425Z,97249.13
2019-01-19T20:46:26.535Z,97249.73
2019-01-19T20:48:55.727Z,97248.66
2019-01-19T20:51:24.857Z,97246.84
2019-01-19T20:53:53.982Z,97246.84
2019-01-19T20:56:23.106Z,97241.59
2019-01-19T20:58:52.224Z,97241.98
2019-01-19T21:01:21.478Z,97243.23
2019-01-19T21:03:50.640Z,97243.23
2019-01-19T21:06:19.771Z,97247.70
2019-01-19T21:08:49.079Z,97245.78
2019-01-19T21:11:18.218Z,97241.40
2019-01-19T21:13:47.376Z,97241.40
2019-01-19T21:16:16.512Z,97229.90
2019-01-19T21:18:46.142Z,97237.26
2019-01-19T21:21:15.417Z,97237.26
2019-01-19T21:23:44.522Z,97243.28
2019-01-19T21:26:13.663Z,97244.27
2019-01-19T21:28:43.242Z,97244.27
2019-01-19T21:31:12.473Z,97250.36
2019-01-19T21:33:41.593Z,97245.59
2019-01-19T21:36:10.739Z,97245.17
2019-01-19T21:38:40.144Z,97237.77
2019-01-19T21:41:09.275Z,97251.67
2019-01-19T21:43:39.546Z,97248.66
2019-01-19T21:46:11.249Z,97250.75
2019-01-19T21:48:41.938Z,97253.20
2019-01-19T21:51:11.401Z,97253.38
2019-01-19T21:53:40.789Z,97253.38
2019-01-19T21:56:12.693Z,97254.09
2019-01-19T21:58:41.856Z,97255.99
2019-01-19T22:01:11.104Z,97255.99
2019-01-19T22:03:40.599Z,97262.79
2019-01-19T22:06:09.805Z,97261.42
2019-01-19T22:08:39.201Z,97261.42
2019-01-19T22:11:14.802Z,97258.82
2019-01-19T22:13:39.187Z,97257.83
2019-01-19T22:16:08.362Z,97257.83
2019-01-19T22:18:37.573Z,97260.05
2019-01-19T22:21:07.086Z,97260.22
2019-01-19T22:23:38.519Z,97259.63
2019-01-19T22:26:09.362Z,97262.98
2019-01-19T22:28:38.925Z,97263.10
2019-01-19T22:31:08.123Z,97263.19
2019-01-19T22:33:39.440Z,97262.39
2019-01-19T22:36:08.555Z,97255.58
2019-01-19T22:38:38.232Z,97263.92
2019-01-19T22:41:07.414Z,97263.92
2019-01-19T22:43:36.564Z,97262.39
2019-01-19T22:46:10.265Z,97262.39
2019-01-19T22:48:39.384Z,97252.30
2019-01-19T22:51:11.439Z,97255.80
2019-01-19T22:53:39.597Z,97262.22
2019-01-19T22:56:08.738Z,97256.45
2019-01-19T22:58:40.083Z,97260.70
2019-01-19T23:01:21.331Z,97260.42
2019-01-19T23:03:50.515Z,97267.22
2019-01-19T23:06:20.098Z,97262.45
2019-01-19T23:08:49.301Z,97262.45
2019-01-19T23:11:18.434Z,97257.26
2019-01-19T23:16:18.002Z,97253.00
2019-01-19T23:18:47.977Z,97260.77
2019-01-19T23:21:17.976Z,97260.77
2019-01-19T23:23:48.009Z,97269.16
2019-01-19T23:26:18.364Z,97269.16
2019-01-19T23:28:49.760Z,97266.95
2019-01-19T23:31:23.807Z,97266.33
2019-01-19T23:33:53.375Z,97266.33
2019-01-19T23:36:25.031Z,97268.38
2019-01-19T23:38:54.339Z,97268.57
2019-01-19T23:41:24.458Z,97258.88
2019-01-19T23:43:56.311Z,97263.42
2019-01-19T23:46:27.253Z,97263.42
2019-01-19T23:48:58.624Z,97264.34
2019-01-19T23:51:28.397Z,97268.48
2019-01-19T23:53:57.989Z,97259.53
2019-01-19T23:56:28.628Z,97260.27
2019-01-19T23:58:59.263Z,97256.42
